Nearby METAR Reports

 

KORH - Worcester, Massachusetts, USA
Distance from station: NW 4mi, 7km
Updated: Sat, 06-Mar-2021 9:54pm EST
Clear
Clear
 Wind from WNW
Wind: WNW 10 mph , 17 km/h
Temperature: 19°F , -7°C
Wind Chill: 8°F , -13°C
Dew Point: 7°F , -14°C
Humidity: 58%
Barometer: 30.07 inHg , 1018.3 hPa
Clouds: Clear
Visibility: 10 miles , 16 km
2021/03/07 02:54 KORH 070254Z AUTO 29009KT 10SM CLR M07/M14 A3007 RMK AO2 SLP201 LAST AUGMENTED OBS T10671144 51013
KBOS - Boston, Massachusetts, USA
Distance from station: ENE 42mi, 68km
Updated: Sat, 06-Mar-2021 9:54pm EST
Clear
Clear
 Wind from WNW
Wind: WNW 13 mph , 20 km/h
Temperature: 28°F , -2°C
Wind Chill: 17°F , -8°C
Dew Point: 9°F , -13°C
Humidity: 43%
Barometer: 30.12 inHg , 1020 hPa
Clouds: Clear
Visibility: 10 miles , 16 km
2021/03/07 02:54 KBOS 070254Z 29011KT 10SM CLR M02/M13 A3012 RMK AO2 SLP199 T10221133 51017 $
 
KCQX - Chatham, Massachusetts, USA
Distance from station: SE 102mi, 164km
Updated: Sat, 06-Mar-2021 9:52pm EST
Clear
Clear
 Wind from WNW
Wind: WNW 7 mph , 11 km/h
Temperature: 28°F , -2°C
Wind Chill: 21°F , -6°C
Dew Point: 10°F , -12°C
Humidity: 47%
Barometer: 30.10 inHg , 1019.3 hPa
Clouds: Clear
Visibility: 10 miles , 16 km
2021/03/07 02:52 KCQX 070252Z AUTO 29006KT 10SM CLR M02/M12 A3010 RMK AO2 SLP195 T10221117 51017
KMVY - Marthas Vineyard, Massachusetts, USA
Distance from station: SE 84mi, 135km
Updated: Sat, 06-Mar-2021 9:53pm EST
Clear
Clear
 Wind from NW
Wind: NW 10 mph , 17 km/h
Temperature: 27°F , -3°C
Wind Chill: 18°F , -8°C
Dew Point: 10°F , -12°C
Humidity: 50%
Barometer: 30.12 inHg , 1020 hPa
Clouds: Clear
Visibility: 10 miles , 16 km
2021/03/07 02:53 KMVY 070253Z AUTO 31009KT 10SM CLR M03/M12 A3012 RMK AO2 SLP201 T10281122 51021
 
KPVC - Provincetown, Massachusetts, USA
Distance from station: NNW 85mi, 136km
Updated: Sat, 06-Mar-2021 9:56pm EST
Few Clouds
Few Clouds
 Wind from NW
Wind: NW 17 mph , 28 km/h, Gust: 22 mph , 35 km/h
Temperature: 28°F , -2°C
Wind Chill: 16°F , -9°C
Dew Point: 14°F , -10°C
Humidity: 55%
Barometer: 30.11 inHg , 1019.6 hPa
Clouds: Few Clouds
Visibility: 10 miles , 16 km
Cloud details: Few Clouds 4900 ft
2021/03/07 02:56 KPVC 070256Z AUTO 32015G19KT 10SM FEW049 M02/M10 A3011 RMK AO2 SLP195 T10171100 51018 FZRANO $
KAQW - Savoy, Massachusetts, USA
Distance from station: NNW 66mi, 106km
Updated: Sat, 06-Mar-2021 9:52pm EST
Clear
Clear
 Wind from W
Wind: W 9 mph , 15 km/h
Temperature: 19°F , -7°C
Wind Chill: 8°F , -13°C
Dew Point: 5°F , -15°C
Humidity: 53%
Barometer: 30.14 inHg , 1020.7 hPa
Clouds: Clear
Visibility: 10 miles , 16 km
2021/03/07 02:52 KAQW 070252Z AUTO 28008KT 10SM CLR M07/M15 A3014 RMK AO2 SLP219 T10671150 51013
 
KIZG - Fryeburg, Maine, USA
Distance from station: NNE 133mi, 214km
Updated: Sat, 06-Mar-2021 9:54pm EST
Clear
Clear
 Wind from SW
Wind: SW 3 mph , 6 km/h
Temperature: 16°F , -9°C
Dew Point: 1°F , -17°C
Humidity: 53%
Barometer: 30.07 inHg , 1018.3 hPa
Clouds: Clear
Visibility: 10 miles , 16 km
2021/03/07 02:54 KIZG 070254Z AUTO 23003KT 10SM CLR M09/M17 A3007 RMK AO2 SLP190 T10941167 51018 $
KMWN - Mt Washington, New Hampshire, USA
Distance from station: NNE 146mi, 234km
Updated: Sat, 06-Mar-2021 9:54pm EST
Freezing fog, Mostly cloudy
Freezing fog, Mostly cloudy
 Wind from WNW
Wind: WNW 22 mph , 35 km/h, Gust: 30 mph , 48 km/h
Temperature: -8°F , -22°C
Wind Chill: -33°F , -36°C
Dew Point: -8°F , -22°C
Humidity: 100%
Summary: Freezing Fog
Clouds: Mostly cloudy
Visibility: 1/16 mile , 0.1 km
Cloud details: Mostly cloudy 0 ft
Mostly cloudy 3000 ft
2021/03/07 02:54 KMWN 070254Z 30019G26KT 1/16SM FZFG BKN000 BKN030 M22/M22 RMK SHSNE35 FZFG BKN000 VRY LGT ICG
 
KBML - Berlin, New Hampshire, USA
Distance from station: NNE 160mi, 257km
Updated: Sat, 06-Mar-2021 9:52pm EST
Overcast
Overcast
 Wind from varies
Wind: varies 3 mph , 6 km/h
Temperature: 16°F , -9°C
Dew Point: 3°F , -16°C
Humidity: 57%
Barometer: 30.06 inHg , 1017.9 hPa
Clouds: Overcast
Visibility: 10 miles , 16 km
Cloud details: Overcast 3800 ft
2021/03/07 02:52 KBML 070252Z AUTO VRB03KT 10SM OVC038 M09/M16 A3006 RMK AO2 SLP203 T10941156 51019